createdAt,value
2023-02-20T00:02:07.286Z,1.57
2023-02-20T00:04:35.432Z,1.58
2023-02-20T00:07:03.600Z,1.62
2023-02-20T00:09:31.651Z,1.65
2023-02-20T00:11:59.836Z,1.66
2023-02-20T00:14:30.276Z,1.65
2023-02-20T00:16:58.620Z,1.64
2023-02-20T00:19:26.739Z,1.63
2023-02-20T00:21:54.928Z,1.62
2023-02-20T00:24:23.292Z,1.64
2023-02-20T00:26:53.420Z,1.65
2023-02-20T00:29:24.330Z,1.67
2023-02-20T00:31:57.480Z,1.68
2023-02-20T00:34:28.540Z,1.67
2023-02-20T00:36:56.708Z,1.66
2023-02-20T00:39:24.923Z,1.65
2023-02-20T00:41:53.079Z,1.63
2023-02-20T00:44:21.202Z,1.63
2023-02-20T00:46:49.254Z,1.65
2023-02-20T00:49:17.402Z,1.66
2023-02-20T00:51:45.627Z,1.67
2023-02-20T00:54:13.824Z,1.67
2023-02-20T00:56:41.903Z,1.66
2023-02-20T00:59:10.276Z,1.65
2023-02-20T01:01:39.096Z,1.64
2023-02-20T01:04:07.496Z,1.64
2023-02-20T01:06:35.693Z,1.66
2023-02-20T01:09:03.900Z,1.68
2023-02-20T01:11:32.071Z,1.70
2023-02-20T01:14:00.277Z,1.70
2023-02-20T01:16:28.455Z,1.68
2023-02-20T01:18:57.074Z,1.68
2023-02-20T01:21:25.271Z,1.70
2023-02-20T01:23:53.318Z,1.72
2023-02-20T01:26:21.680Z,1.77
2023-02-20T01:28:50.026Z,1.79
2023-02-20T01:31:18.249Z,1.78
2023-02-20T01:33:46.424Z,1.78
2023-02-20T01:36:15.011Z,1.77
2023-02-20T01:38:43.250Z,1.75
2023-02-20T01:41:12.329Z,1.77
2023-02-20T01:43:41.166Z,1.79
2023-02-20T01:46:27.841Z,1.81
2023-02-20T01:49:19.174Z,1.80
2023-02-20T01:51:59.561Z,1.78
2023-02-20T01:54:29.859Z,1.78
2023-02-20T01:57:02.079Z,1.76
2023-02-20T01:59:34.962Z,1.77
2023-02-20T02:02:04.428Z,1.79
2023-02-20T02:04:36.235Z,1.83
2023-02-20T02:07:04.788Z,1.84
2023-02-20T02:09:55.112Z,1.84
2023-02-20T02:12:23.947Z,1.84
2023-02-20T02:14:52.147Z,1.83
2023-02-20T02:17:46.224Z,1.83
2023-02-20T02:20:26.392Z,1.86
2023-02-20T02:23:09.411Z,1.88
2023-02-20T02:25:57.354Z,1.89
2023-02-20T02:29:03.936Z,1.91
2023-02-20T02:32:29.300Z,1.90
2023-02-20T02:35:12.595Z,1.92
2023-02-20T02:38:02.378Z,1.96
2023-02-20T02:40:36.347Z,1.98
2023-02-20T02:43:20.413Z,1.97
2023-02-20T02:45:57.564Z,1.97
2023-02-20T02:48:37.537Z,1.96
2023-02-20T02:51:13.702Z,1.97
2023-02-20T02:53:42.128Z,2.01
2023-02-20T02:56:23.125Z,2.03
2023-02-20T02:58:54.732Z,2.06
2023-02-20T03:01:23.752Z,2.08
2023-02-20T03:03:55.278Z,2.09
2023-02-20T03:06:34.549Z,2.10
2023-02-20T03:09:19.668Z,2.13
2023-02-20T03:11:49.099Z,2.15
2023-02-20T03:15:01.930Z,2.17
2023-02-20T03:17:38.037Z,2.18
2023-02-20T03:20:12.063Z,2.20
2023-02-20T03:22:46.077Z,2.20
2023-02-20T03:25:28.640Z,2.23
2023-02-20T03:28:00.768Z,2.25
2023-02-20T03:30:33.784Z,2.28
2023-02-20T03:33:26.793Z,2.29
2023-02-20T03:36:15.838Z,2.29
2023-02-20T03:39:09.218Z,2.29
2023-02-20T03:41:59.004Z,2.31
2023-02-20T03:44:28.581Z,2.34
2023-02-20T03:46:57.693Z,2.35
2023-02-20T03:49:39.193Z,2.35
2023-02-20T03:52:07.677Z,2.34
2023-02-20T03:54:36.897Z,2.34
2023-02-20T03:57:10.719Z,2.35
2023-02-20T03:59:44.725Z,2.38
2023-02-20T04:02:28.874Z,2.39
2023-02-20T04:05:01.621Z,2.38
2023-02-20T04:07:40.334Z,2.37
2023-02-20T04:10:14.717Z,2.37
2023-02-20T04:12:45.776Z,2.39
2023-02-20T04:15:14.766Z,2.41
2023-02-20T04:17:48.050Z,2.41
2023-02-20T04:20:17.048Z,2.38
2023-02-20T04:22:48.730Z,2.35
2023-02-20T04:25:40.699Z,2.33
2023-02-20T04:28:09.118Z,2.34
2023-02-20T04:30:37.834Z,2.33
2023-02-20T04:33:06.489Z,2.31
2023-02-20T04:35:34.590Z,2.29
2023-02-20T04:38:02.798Z,2.27
2023-02-20T04:40:30.812Z,2.25
2023-02-20T04:42:58.972Z,2.27
2023-02-20T04:45:27.199Z,2.26
2023-02-20T04:47:55.815Z,2.24
2023-02-20T04:50:32.918Z,2.22
2023-02-20T04:53:01.913Z,2.19
2023-02-20T04:55:30.093Z,2.18
2023-02-20T04:57:58.674Z,2.19
2023-02-20T05:00:27.845Z,2.20
2023-02-20T05:02:56.619Z,2.19
2023-02-20T05:05:27.977Z,2.17
2023-02-20T05:08:05.578Z,2.16
2023-02-20T05:10:35.357Z,2.14
2023-02-20T05:13:03.962Z,2.16
2023-02-20T05:15:32.896Z,2.15
2023-02-20T05:18:01.068Z,2.14
2023-02-20T05:20:49.410Z,2.14
2023-02-20T05:23:17.431Z,2.14
2023-02-20T05:25:45.594Z,2.16
2023-02-20T05:28:13.611Z,2.18
2023-02-20T05:30:42.217Z,2.19
2023-02-20T05:33:10.475Z,2.17
2023-02-20T05:35:40.676Z,2.16
2023-02-20T05:38:08.712Z,2.17
2023-02-20T05:40:36.872Z,2.18
2023-02-20T05:43:04.884Z,2.20
2023-02-20T05:45:32.976Z,2.19
2023-02-20T05:48:01.063Z,2.19
2023-02-20T05:50:29.307Z,2.18
2023-02-20T05:52:57.355Z,2.20
2023-02-20T05:55:25.368Z,2.21
2023-02-20T05:57:53.479Z,2.20
2023-02-20T06:00:21.628Z,2.19
2023-02-20T06:02:50.042Z,2.18
2023-02-20T06:05:18.240Z,2.20
2023-02-20T06:07:46.845Z,2.23
2023-02-20T06:10:16.085Z,2.25
2023-02-20T06:12:44.101Z,2.26
2023-02-20T06:15:12.215Z,2.26
2023-02-20T06:17:40.277Z,2.28
2023-02-20T06:20:09.173Z,2.31
2023-02-20T06:22:37.304Z,2.34
2023-02-20T06:25:06.486Z,2.35
2023-02-20T06:27:34.558Z,2.35
2023-02-20T06:30:02.739Z,2.36
2023-02-20T06:32:30.834Z,2.39
2023-02-20T06:34:58.924Z,2.42
2023-02-20T06:37:27.204Z,2.44
2023-02-20T06:39:56.003Z,2.44
2023-02-20T06:42:24.157Z,2.47
2023-02-20T06:44:52.276Z,2.50
2023-02-20T06:47:20.377Z,2.54
2023-02-20T06:49:48.527Z,2.54
2023-02-20T06:52:16.604Z,2.55
2023-02-20T06:54:45.032Z,2.57
2023-02-20T06:57:13.156Z,2.60
2023-02-20T06:59:42.508Z,2.64
2023-02-20T07:02:15.048Z,2.65
2023-02-20T07:04:43.196Z,2.66
2023-02-20T07:07:11.226Z,2.68
2023-02-20T07:09:39.345Z,2.71
2023-02-20T07:12:07.680Z,2.75
2023-02-20T07:14:35.742Z,2.78
2023-02-20T07:17:03.865Z,2.77
2023-02-20T07:19:32.011Z,2.80
2023-02-20T07:22:00.067Z,2.85
2023-02-20T07:24:28.783Z,2.87
2023-02-20T07:29:23.646Z,2.90
2023-02-20T07:31:51.789Z,2.92
2023-02-20T07:34:19.989Z,2.99
2023-02-20T07:36:48.038Z,3.02
2023-02-20T07:39:16.684Z,3.04
2023-02-20T07:41:45.109Z,3.06
2023-02-20T07:44:14.935Z,3.09
2023-02-20T07:46:43.639Z,3.13
2023-02-20T07:49:11.792Z,3.16
2023-02-20T07:51:39.936Z,3.18
2023-02-20T07:54:07.973Z,3.21
2023-02-20T07:56:36.065Z,3.23
2023-02-20T07:59:04.526Z,3.27
2023-02-20T08:01:32.567Z,3.30
2023-02-20T08:04:00.705Z,3.33
2023-02-20T08:06:29.236Z,3.34
2023-02-20T08:08:57.303Z,3.36
2023-02-20T08:11:25.442Z,3.40
2023-02-20T08:13:55.845Z,3.45
2023-02-20T08:16:24.822Z,3.48
2023-02-20T08:18:54.041Z,3.50
2023-02-20T08:21:22.623Z,3.54
2023-02-20T08:23:52.650Z,3.58
2023-02-20T08:26:21.938Z,3.61
2023-02-20T08:28:50.824Z,3.63
2023-02-20T08:31:31.265Z,3.65
2023-02-20T08:34:00.803Z,3.69
2023-02-20T08:36:29.353Z,3.74
2023-02-20T08:38:58.064Z,3.78
2023-02-20T08:41:26.803Z,3.80
2023-02-20T08:43:55.669Z,3.84
2023-02-20T08:46:23.759Z,3.89
2023-02-20T08:48:51.960Z,3.94
2023-02-20T08:51:21.450Z,3.96
2023-02-20T08:53:49.546Z,3.99
2023-02-20T08:56:22.120Z,4.03
2023-02-20T08:58:50.198Z,4.07
2023-02-20T09:01:18.385Z,4.12
2023-02-20T09:03:46.690Z,4.15
2023-02-20T09:06:15.141Z,4.17
2023-02-20T09:08:43.406Z,4.22
2023-02-20T09:11:12.323Z,4.27
2023-02-20T09:13:48.188Z,4.30
2023-02-20T09:16:20.266Z,4.33
2023-02-20T09:18:49.513Z,4.37
2023-02-20T09:21:19.988Z,4.42
2023-02-20T09:23:48.708Z,4.47
2023-02-20T09:26:16.848Z,4.50
2023-02-20T09:28:44.959Z,4.53
2023-02-20T09:31:13.557Z,4.58
2023-02-20T09:33:51.161Z,4.63
2023-02-20T09:36:20.221Z,4.67
2023-02-20T09:38:48.537Z,4.69
2023-02-20T09:41:22.301Z,4.73
2023-02-20T09:44:23.229Z,4.81
2023-02-20T09:46:53.750Z,4.87
2023-02-20T09:49:26.450Z,4.91
2023-02-20T09:51:59.732Z,4.94
2023-02-20T09:54:39.452Z,4.98
2023-02-20T09:57:15.261Z,5.03
2023-02-20T10:00:06.618Z,5.06
2023-02-20T10:02:41.342Z,5.08
2023-02-20T10:05:29.939Z,5.10
2023-02-20T10:07:58.340Z,5.15
2023-02-20T10:10:39.239Z,5.18
2023-02-20T10:13:22.609Z,5.19
2023-02-20T10:16:07.490Z,5.21
2023-02-20T10:18:58.866Z,5.24
2023-02-20T10:21:49.774Z,5.28
2023-02-20T10:24:46.988Z,5.31
2023-02-20T10:27:48.975Z,5.32
2023-02-20T10:30:32.384Z,5.34
2023-02-20T10:33:25.284Z,5.36
2023-02-20T10:36:22.982Z,5.39
2023-02-20T10:39:12.325Z,5.41
2023-02-20T10:42:00.240Z,5.41
2023-02-20T10:44:28.287Z,5.43
2023-02-20T10:47:10.334Z,5.48
2023-02-20T10:49:45.815Z,5.50
2023-02-20T10:52:31.737Z,5.52
2023-02-20T10:55:10.059Z,5.52
2023-02-20T10:57:45.118Z,5.52
2023-02-20T11:00:23.099Z,5.55
2023-02-20T11:03:14.965Z,5.57
2023-02-20T11:05:50.918Z,5.58
2023-02-20T11:08:21.194Z,5.59
2023-02-20T11:10:52.075Z,5.61
2023-02-20T11:13:24.037Z,5.65
2023-02-20T11:15:55.656Z,5.69
2023-02-20T11:18:26.373Z,5.70
2023-02-20T11:20:57.524Z,5.71
2023-02-20T11:23:43.964Z,5.72
2023-02-20T11:26:21.829Z,5.77
2023-02-20T11:29:17.244Z,5.81
2023-02-20T11:31:47.832Z,5.83
2023-02-20T11:34:22.122Z,5.84
2023-02-20T11:36:55.640Z,5.87
2023-02-20T11:39:29.999Z,5.90
2023-02-20T11:42:17.779Z,5.93
2023-02-20T11:44:48.666Z,5.95
2023-02-20T11:47:24.897Z,5.96
2023-02-20T11:50:19.043Z,5.98
2023-02-20T11:53:00.170Z,6.03
2023-02-20T11:55:29.820Z,6.07
2023-02-20T11:57:58.382Z,6.09
2023-02-20T12:00:29.332Z,6.10
2023-02-20T12:03:09.501Z,6.12
2023-02-20T12:05:41.968Z,6.16
2023-02-20T12:08:55.242Z,6.20
2023-02-20T12:11:27.635Z,6.23
2023-02-20T12:13:58.616Z,6.24
2023-02-20T12:16:37.382Z,6.26
2023-02-20T12:19:50.637Z,6.30
2023-02-20T12:22:31.202Z,6.32
2023-02-20T12:25:18.814Z,6.33
2023-02-20T12:28:14.391Z,6.37
2023-02-20T12:30:51.651Z,6.41
2023-02-20T12:33:44.096Z,6.44
2023-02-20T12:36:32.975Z,6.45
2023-02-20T12:39:13.386Z,6.46
2023-02-20T12:42:13.418Z,6.48
2023-02-20T12:45:17.547Z,6.50
2023-02-20T12:47:46.429Z,6.53
2023-02-20T12:50:45.516Z,6.53
2023-02-20T12:53:20.432Z,6.55
2023-02-20T12:55:55.236Z,6.58
2023-02-20T12:58:46.620Z,6.61
2023-02-20T13:01:27.692Z,6.63
2023-02-20T13:04:23.525Z,6.64
2023-02-20T13:06:56.753Z,6.66
2023-02-20T13:09:32.345Z,6.68
2023-02-20T13:12:11.817Z,6.71
2023-02-20T13:14:54.649Z,6.72
2023-02-20T13:17:25.522Z,6.72
2023-02-20T13:20:24.444Z,6.74
2023-02-20T13:23:18.767Z,6.78
2023-02-20T13:25:49.084Z,6.80
2023-02-20T13:28:37.141Z,6.81
2023-02-20T13:31:11.004Z,6.82
2023-02-20T13:33:41.853Z,6.84
2023-02-20T13:36:38.227Z,6.84
2023-02-20T13:39:25.555Z,6.87
2023-02-20T13:41:58.336Z,6.87
2023-02-20T13:44:38.019Z,6.88
2023-02-20T13:47:26.976Z,6.90
2023-02-20T13:49:59.293Z,6.89
2023-02-20T13:52:45.792Z,6.92
2023-02-20T13:55:27.222Z,6.92
2023-02-20T13:58:01.629Z,6.94
2023-02-20T14:00:48.580Z,6.98
2023-02-20T14:03:25.125Z,6.98
2023-02-20T14:06:04.743Z,6.98
2023-02-20T14:08:33.372Z,6.99
2023-02-20T14:11:10.608Z,7.01
2023-02-20T14:13:41.586Z,7.03
2023-02-20T14:16:34.092Z,7.03
2023-02-20T14:19:16.962Z,7.02
2023-02-20T14:21:45.116Z,7.04
2023-02-20T14:24:29.679Z,7.08
2023-02-20T14:26:57.953Z,7.09
2023-02-20T14:29:30.569Z,7.09
2023-02-20T14:32:01.797Z,7.07
2023-02-20T14:34:35.980Z,7.09
2023-02-20T14:37:15.219Z,7.11
2023-02-20T14:39:55.467Z,7.13
2023-02-20T14:42:25.460Z,7.13
2023-02-20T14:45:01.080Z,7.13
2023-02-20T14:47:29.617Z,7.13
2023-02-20T14:50:24.338Z,7.15
2023-02-20T14:53:20.970Z,7.21
2023-02-20T14:55:50.450Z,7.25
2023-02-20T14:58:23.656Z,7.26
2023-02-20T15:00:53.687Z,7.25
2023-02-20T15:03:31.418Z,7.24
2023-02-20T15:06:02.593Z,7.25
2023-02-20T15:08:36.447Z,7.26
2023-02-20T15:11:14.236Z,7.27
2023-02-20T15:13:45.394Z,7.23
2023-02-20T15:16:21.493Z,7.21
2023-02-20T15:18:50.610Z,7.22
2023-02-20T15:21:37.072Z,7.23
2023-02-20T15:24:30.373Z,7.23
2023-02-20T15:27:12.592Z,7.21
2023-02-20T15:29:41.875Z,7.20
2023-02-20T15:32:22.681Z,7.21
2023-02-20T15:34:57.260Z,7.22
2023-02-20T15:37:37.947Z,7.21
2023-02-20T15:40:29.718Z,7.20
2023-02-20T15:42:58.389Z,7.21
2023-02-20T15:45:29.285Z,7.22
2023-02-20T15:47:58.883Z,7.24
2023-02-20T15:50:27.540Z,7.24
2023-02-20T15:52:58.817Z,7.23
2023-02-20T15:55:29.906Z,7.24
2023-02-20T15:57:59.733Z,7.26
2023-02-20T16:00:30.843Z,7.27
2023-02-20T16:03:01.530Z,7.23
2023-02-20T16:05:30.256Z,7.24
2023-02-20T16:07:58.666Z,7.24
2023-02-20T16:10:26.831Z,7.25
2023-02-20T16:12:58.752Z,7.25
2023-02-20T16:15:27.045Z,7.26
2023-02-20T16:17:56.858Z,7.26
2023-02-20T16:20:52.124Z,7.27
2023-02-20T16:23:20.585Z,7.28
2023-02-20T16:25:50.340Z,7.29
2023-02-20T16:28:18.544Z,7.29
2023-02-20T16:30:47.327Z,7.30
2023-02-20T16:33:18.985Z,7.32
2023-02-20T16:35:48.552Z,7.34
2023-02-20T16:38:17.519Z,7.35
2023-02-20T16:40:46.580Z,7.35
2023-02-20T16:43:14.817Z,7.35
2023-02-20T16:45:43.540Z,7.37
2023-02-20T16:48:17.737Z,7.40
2023-02-20T16:50:51.726Z,7.40
2023-02-20T16:53:20.705Z,7.39
2023-02-20T16:55:49.595Z,7.39
2023-02-20T16:58:20.559Z,7.39
2023-02-20T17:00:57.519Z,7.41
2023-02-20T17:03:29.868Z,7.40
2023-02-20T17:06:20.624Z,7.40
2023-02-20T17:08:49.278Z,7.41
2023-02-20T17:11:18.049Z,7.42
2023-02-20T17:13:46.215Z,7.44
2023-02-20T17:16:25.531Z,7.45
2023-02-20T17:18:59.652Z,7.45
2023-02-20T17:21:28.214Z,7.45
2023-02-20T17:23:56.381Z,7.47
2023-02-20T17:26:28.604Z,7.48
2023-02-20T17:28:56.760Z,7.50
2023-02-20T17:31:25.564Z,7.50
2023-02-20T17:33:53.685Z,7.49
2023-02-20T17:36:21.795Z,7.51
2023-02-20T17:38:51.206Z,7.53
2023-02-20T17:41:20.020Z,7.53
2023-02-20T17:43:48.146Z,7.53
2023-02-20T17:46:20.335Z,7.52
2023-02-20T17:48:48.564Z,7.53
2023-02-20T17:51:19.530Z,7.56
2023-02-20T17:53:47.851Z,7.58
2023-02-20T17:56:16.878Z,7.58
2023-02-20T17:58:46.621Z,7.58
2023-02-20T18:01:14.885Z,7.57
2023-02-20T18:03:43.080Z,7.58
2023-02-20T18:06:11.601Z,7.58
2023-02-20T18:08:40.638Z,7.59
2023-02-20T18:11:08.681Z,7.58
2023-02-20T18:13:36.764Z,7.57
2023-02-20T18:16:05.178Z,7.55
2023-02-20T18:18:33.347Z,7.59
2023-02-20T18:21:01.500Z,7.60
2023-02-20T18:23:29.581Z,7.59
2023-02-20T18:25:57.661Z,7.59
2023-02-20T18:28:25.865Z,7.58
2023-02-20T18:30:54.060Z,7.57
2023-02-20T18:33:22.225Z,7.56
2023-02-20T18:36:05.969Z,7.56
2023-02-20T18:38:36.401Z,7.55
2023-02-20T18:41:04.752Z,7.54
2023-02-20T18:43:33.123Z,7.54
2023-02-20T18:46:02.246Z,7.54
2023-02-20T18:48:30.434Z,7.55
2023-02-20T18:50:58.478Z,7.54
2023-02-20T18:53:36.017Z,7.53
2023-02-20T18:56:04.488Z,7.53
2023-02-20T18:58:32.585Z,7.53
2023-02-20T19:01:01.622Z,7.54
2023-02-20T19:03:29.863Z,7.52
2023-02-20T19:05:58.091Z,7.50
2023-02-20T19:08:26.190Z,7.49
2023-02-20T19:10:54.348Z,7.50
2023-02-20T19:13:22.391Z,7.51
2023-02-20T19:15:50.573Z,7.53
2023-02-20T19:18:18.716Z,7.53
2023-02-20T19:20:46.850Z,7.51
2023-02-20T19:23:15.022Z,7.48
2023-02-20T19:25:44.401Z,7.49
2023-02-20T19:28:12.589Z,7.50
2023-02-20T19:30:40.873Z,7.49
2023-02-20T19:33:09.314Z,7.48
2023-02-20T19:35:37.463Z,7.46
2023-02-20T19:38:05.541Z,7.43
2023-02-20T19:40:33.750Z,7.43
2023-02-20T19:43:01.885Z,7.44
2023-02-20T19:45:29.964Z,7.44
2023-02-20T19:47:58.570Z,7.42
2023-02-20T19:50:30.491Z,7.39
2023-02-20T19:52:59.386Z,7.38
2023-02-20T19:55:27.944Z,7.38
2023-02-20T19:57:56.576Z,7.38
2023-02-20T20:00:24.648Z,7.38
2023-02-20T20:02:53.405Z,7.38
2023-02-20T20:05:21.549Z,7.35
2023-02-20T20:07:50.709Z,7.33
2023-02-20T20:10:20.577Z,7.32
2023-02-20T20:12:48.998Z,7.32
2023-02-20T20:15:20.901Z,7.33
2023-02-20T20:17:54.347Z,7.34
2023-02-20T20:20:23.929Z,7.34
2023-02-20T20:22:54.594Z,7.33
2023-02-20T20:25:23.787Z,7.31
2023-02-20T20:27:53.875Z,7.30
2023-02-20T20:30:25.463Z,7.29
2023-02-20T20:32:57.112Z,7.27
2023-02-20T20:35:27.741Z,7.26
2023-02-20T20:37:56.696Z,7.23
2023-02-20T20:40:28.939Z,7.22
2023-02-20T20:42:59.189Z,7.21
2023-02-20T20:45:27.493Z,7.21
2023-02-20T20:47:55.679Z,7.20
2023-02-20T20:50:27.917Z,7.18
2023-02-20T20:52:58.944Z,7.16
2023-02-20T20:55:28.626Z,7.12
2023-02-20T20:57:56.697Z,7.10
2023-02-20T21:00:27.455Z,7.07
2023-02-20T21:02:56.140Z,7.04
2023-02-20T21:05:28.781Z,6.99
2023-02-20T21:07:57.923Z,6.93
2023-02-20T21:10:26.556Z,6.89
2023-02-20T21:12:55.024Z,6.87
2023-02-20T21:15:23.900Z,6.86
2023-02-20T21:17:52.945Z,6.85
2023-02-20T21:20:26.962Z,6.83
2023-02-20T21:22:55.241Z,6.78
2023-02-20T21:25:26.966Z,6.75
2023-02-20T21:27:56.974Z,6.74
2023-02-20T21:30:26.016Z,6.72
2023-02-20T21:32:54.989Z,6.67
2023-02-20T21:35:23.682Z,6.63
2023-02-20T21:37:52.142Z,6.57
2023-02-20T21:40:20.480Z,6.55
2023-02-20T21:43:07.249Z,6.55
2023-02-20T21:45:36.576Z,6.56
2023-02-20T21:48:05.956Z,6.55
2023-02-20T21:50:34.354Z,6.54
2023-02-20T21:53:02.669Z,6.51
2023-02-20T21:55:31.134Z,6.50
2023-02-20T21:57:59.219Z,6.50
2023-02-20T22:00:27.497Z,6.50
2023-02-20T22:02:55.813Z,6.50
2023-02-20T22:05:23.932Z,6.47
2023-02-20T22:08:10.486Z,6.44
2023-02-20T22:10:57.284Z,6.44
2023-02-20T22:13:44.151Z,6.44
2023-02-20T22:16:37.637Z,6.45
2023-02-20T22:19:24.622Z,6.46
2023-02-20T22:22:12.071Z,6.44
2023-02-20T22:24:58.887Z,6.40
2023-02-20T22:27:46.268Z,6.37
2023-02-20T22:30:32.886Z,6.37
2023-02-20T22:33:19.775Z,6.37
2023-02-20T22:36:06.494Z,6.33
2023-02-20T22:38:53.319Z,6.28
2023-02-20T22:41:40.205Z,6.28
2023-02-20T22:44:26.941Z,6.28
2023-02-20T22:47:13.790Z,6.27
2023-02-20T22:50:00.773Z,6.25
2023-02-20T22:52:54.942Z,6.16
2023-02-20T22:56:06.715Z,6.18
2023-02-20T22:59:11.158Z,6.15
2023-02-20T23:02:00.732Z,6.19
2023-02-20T23:04:53.017Z,6.21
2023-02-20T23:07:49.902Z,6.23
2023-02-20T23:10:46.963Z,6.19
2023-02-20T23:13:37.157Z,6.18
2023-02-20T23:16:24.782Z,6.19
2023-02-20T23:19:12.404Z,6.23
2023-02-20T23:22:05.986Z,6.21
2023-02-20T23:24:53.493Z,6.19
2023-02-20T23:27:41.111Z,6.17
2023-02-20T23:30:28.657Z,6.18
2023-02-20T23:33:15.551Z,6.19
2023-02-20T23:36:03.748Z,6.18
2023-02-20T23:38:50.893Z,6.17
2023-02-20T23:41:37.675Z,6.13
2023-02-20T23:44:26.551Z,6.08
2023-02-20T23:47:14.016Z,6.08
2023-02-20T23:50:01.327Z,6.11
2023-02-20T23:52:48.194Z,6.11
2023-02-20T23:55:35.141Z,6.11
2023-02-20T23:58:22.399Z,6.08
